createdAt,value
2023-03-05T00:01:35.488Z,35.67
2023-03-05T00:04:05.289Z,45.00
2023-03-05T00:06:34.285Z,29.33
2023-03-05T00:09:02.633Z,35.33
2023-03-05T00:11:33.667Z,29.83
2023-03-05T00:14:03.882Z,33.50
2023-03-05T00:16:32.140Z,35.00
2023-03-05T00:19:00.799Z,12.00
2023-03-05T00:21:38.434Z,26.33
2023-03-05T00:24:15.457Z,11.83
2023-03-05T00:26:43.427Z,19.33
2023-03-05T00:29:18.610Z,22.00
2023-03-05T00:31:48.927Z,29.67
2023-03-05T00:34:18.722Z,30.67
2023-03-05T00:36:52.103Z,14.00
2023-03-05T00:39:22.235Z,19.00
2023-03-05T00:41:50.473Z,16.67
2023-03-05T00:44:19.717Z,24.00
2023-03-05T00:46:46.726Z,19.00
2023-03-05T00:49:13.730Z,18.50
2023-03-05T00:51:44.189Z,15.29
2023-03-05T00:54:11.104Z,21.00
2023-03-05T00:56:39.993Z,20.20
2023-03-05T00:59:10.354Z,18.29
2023-03-05T01:01:37.361Z,21.00
2023-03-05T01:04:04.352Z,17.00
2023-03-05T01:06:31.211Z,12.00
2023-03-05T01:08:59.353Z,13.00
2023-03-05T01:11:28.315Z,17.80
2023-03-05T01:13:57.194Z,14.60
2023-03-05T01:16:27.681Z,20.14
2023-03-05T01:18:58.442Z,16.14
2023-03-05T01:21:26.252Z,18.00
2023-03-05T01:23:54.025Z,24.67
2023-03-05T01:26:21.260Z,16.00
2023-03-05T01:28:48.235Z,19.00
2023-03-05T01:31:15.349Z,16.00
2023-03-05T01:33:42.222Z,23.00
2023-03-05T01:36:15.029Z,23.50
2023-03-05T01:38:43.303Z,17.50
2023-03-05T01:41:11.364Z,18.00
2023-03-05T01:43:38.712Z,18.00
2023-03-05T01:46:22.145Z,11.33
2023-03-05T01:49:10.806Z,15.50
2023-03-05T01:51:43.210Z,11.00
2023-03-05T01:54:13.982Z,16.50
2023-03-05T01:56:42.390Z,24.00
2023-03-05T01:59:09.452Z,9.00
2023-03-05T02:01:46.366Z,13.00
2023-03-05T02:04:17.444Z,18.00
2023-03-05T02:06:45.650Z,16.00
2023-03-05T02:09:13.788Z,17.33
2023-03-05T02:11:41.581Z,16.00
2023-03-05T02:14:10.268Z,15.00
2023-03-05T02:16:38.938Z,18.33
2023-03-05T02:19:10.677Z,13.75
2023-03-05T02:21:45.089Z,21.00
2023-03-05T02:24:14.094Z,12.00
2023-03-05T02:26:44.929Z,16.50
2023-03-05T02:29:18.686Z,16.00
2023-03-05T02:31:46.460Z,13.25
2023-03-05T02:34:17.191Z,14.50
2023-03-05T02:36:44.082Z,15.50
2023-03-05T02:39:10.905Z,12.50
2023-03-05T02:41:38.044Z,15.50
2023-03-05T02:44:05.135Z,18.50
2023-03-05T02:46:32.884Z,20.33
2023-03-05T02:49:01.861Z,18.00
2023-03-05T02:51:28.774Z,6.00
2023-03-05T02:53:55.791Z,21.00
2023-03-05T02:56:22.735Z,16.00
2023-03-05T02:58:49.615Z,16.00
2023-03-05T03:01:16.618Z,16.00
2023-03-05T03:03:43.422Z,13.00
2023-03-05T03:06:10.361Z,24.00
2023-03-05T03:08:37.623Z,18.00
2023-03-05T03:11:12.663Z,20.50
2023-03-05T03:13:41.681Z,21.25
2023-03-05T03:16:14.639Z,14.50
2023-03-05T03:18:42.938Z,15.00
2023-03-05T03:21:16.172Z,15.00
2023-03-05T03:23:43.862Z,14.75
2023-03-05T03:26:11.558Z,24.00
2023-03-05T03:28:38.355Z,15.00
2023-03-05T03:31:06.490Z,15.75
2023-03-05T03:33:34.148Z,18.25
2023-03-05T03:36:01.153Z,18.00
2023-03-05T03:38:28.149Z,14.50
2023-03-05T03:40:55.265Z,21.00
2023-03-05T03:43:22.173Z,14.00
2023-03-05T03:45:49.162Z,13.00
2023-03-05T03:48:16.237Z,20.00
2023-03-05T03:50:44.835Z,16.50
2023-03-05T03:53:14.770Z,19.50
2023-03-05T03:55:46.608Z,17.00
2023-03-05T03:58:14.148Z,17.00
2023-03-05T04:00:42.440Z,21.00
2023-03-05T04:03:09.878Z,12.00
2023-03-05T04:05:36.818Z,15.00
2023-03-05T04:08:04.281Z,15.50
2023-03-05T04:10:32.049Z,12.50
2023-03-05T04:12:58.956Z,21.50
2023-03-05T04:15:26.344Z,20.00
2023-03-05T04:17:53.204Z,23.00
2023-03-05T04:20:20.295Z,19.50
2023-03-05T04:22:47.202Z,15.50
2023-03-05T04:25:16.909Z,15.33
2023-03-05T04:27:43.817Z,9.67
2023-03-05T04:30:17.697Z,20.00
2023-03-05T04:32:44.421Z,10.00
2023-03-05T04:35:11.568Z,13.67
2023-03-05T04:37:38.436Z,12.50
2023-03-05T04:40:06.853Z,22.50
2023-03-05T04:42:34.528Z,10.00
2023-03-05T04:45:01.422Z,12.00
2023-03-05T04:47:28.256Z,16.00
2023-03-05T04:49:58.069Z,15.50
2023-03-05T04:52:25.302Z,19.00
2023-03-05T04:54:54.598Z,24.67
2023-03-05T04:57:23.120Z,12.00
2023-03-05T04:59:50.813Z,12.00
2023-03-05T05:02:17.873Z,13.67
2023-03-05T05:04:45.971Z,15.00
2023-03-05T05:07:15.504Z,10.50
2023-03-05T05:09:42.376Z,17.00
2023-03-05T05:12:10.645Z,14.00
2023-03-05T05:14:38.174Z,15.50
2023-03-05T05:17:05.946Z,14.00
2023-03-05T05:19:34.084Z,12.00
2023-03-05T05:22:01.371Z,13.00
2023-03-05T05:24:28.341Z,13.00
2023-03-05T05:26:55.945Z,12.50
2023-03-05T05:29:23.470Z,14.00
2023-03-05T05:31:50.483Z,18.00
2023-03-05T05:34:17.414Z,16.50
2023-03-05T05:36:44.234Z,15.00
2023-03-05T05:39:11.192Z,22.00
2023-03-05T05:41:38.812Z,15.50
2023-03-05T05:44:05.604Z,18.00
2023-03-05T05:46:33.415Z,12.75
2023-03-05T05:49:00.461Z,14.00
2023-03-05T05:51:27.605Z,16.00
2023-03-05T05:53:54.484Z,18.00
2023-03-05T05:56:22.331Z,14.75
2023-03-05T05:58:49.522Z,15.00
2023-03-05T06:01:32.058Z,13.00
2023-03-05T06:04:00.217Z,25.67
2023-03-05T06:06:29.474Z,21.40
2023-03-05T06:08:59.004Z,24.33
2023-03-05T06:11:27.853Z,18.80
2023-03-05T06:13:55.834Z,19.00
2023-03-05T06:16:25.973Z,29.17
2023-03-05T06:18:53.532Z,22.00
2023-03-05T06:21:23.963Z,15.00
2023-03-05T06:23:51.304Z,23.00
2023-03-05T06:26:21.136Z,15.50
2023-03-05T06:28:47.989Z,12.00
2023-03-05T06:31:18.059Z,16.00
2023-03-05T06:33:45.970Z,27.33
2023-03-05T06:36:17.637Z,25.00
2023-03-05T06:38:48.916Z,24.00
2023-03-05T06:41:22.783Z,21.29
2023-03-05T06:43:55.660Z,19.40
2023-03-05T06:46:34.646Z,16.86
2023-03-05T06:49:04.017Z,18.00
2023-03-05T06:51:35.013Z,21.00
2023-03-05T06:54:05.334Z,14.00
2023-03-05T06:56:32.399Z,22.00
2023-03-05T06:59:01.091Z,18.40
2023-03-05T07:01:28.068Z,19.00
2023-03-05T07:03:59.040Z,23.33
2023-03-05T07:06:32.336Z,18.86
2023-03-05T07:09:02.372Z,19.20
2023-03-05T07:11:30.286Z,7.00
2023-03-05T07:14:00.083Z,27.50
2023-03-05T07:16:30.905Z,21.67
2023-03-05T07:19:00.657Z,24.00
2023-03-05T07:21:30.370Z,24.50
2023-03-05T07:24:00.787Z,19.00
2023-03-05T07:26:31.100Z,25.17
2023-03-05T07:28:58.088Z,18.00
2023-03-05T07:31:31.076Z,23.00
2023-03-05T07:34:01.389Z,26.00
2023-03-05T07:36:30.097Z,28.67
2023-03-05T07:38:57.391Z,19.00
2023-03-05T07:41:24.409Z,22.00
2023-03-05T07:43:53.715Z,22.67
2023-03-05T07:46:24.760Z,26.67
2023-03-05T07:48:52.886Z,16.00
2023-03-05T07:51:20.733Z,22.00
2023-03-05T07:53:49.582Z,16.00
2023-03-05T07:56:25.136Z,21.33
2023-03-05T07:58:53.261Z,18.00
2023-03-05T08:01:21.316Z,22.67
2023-03-05T08:03:48.358Z,23.00
2023-03-05T08:06:15.447Z,17.50
2023-03-05T08:08:42.988Z,21.50
2023-03-05T08:11:13.604Z,18.67
2023-03-05T08:13:43.074Z,22.00
2023-03-05T08:16:17.165Z,19.67
2023-03-05T08:18:45.786Z,26.33
2023-03-05T08:21:21.732Z,23.33
2023-03-05T08:23:50.576Z,20.20
2023-03-05T08:26:22.471Z,17.25
2023-03-05T08:28:52.785Z,28.83
2023-03-05T08:31:24.388Z,22.67
2023-03-05T08:33:54.238Z,22.67
2023-03-05T08:36:22.352Z,26.67
2023-03-05T08:38:50.733Z,25.67
2023-03-05T08:41:20.099Z,23.00
2023-03-05T08:43:47.998Z,26.33
2023-03-05T08:46:16.006Z,15.50
2023-03-05T08:48:43.902Z,24.33
2023-03-05T08:51:16.267Z,32.33
2023-03-05T08:53:45.901Z,22.00
2023-03-05T08:56:16.855Z,28.00
2023-03-05T08:58:46.592Z,28.33
2023-03-05T09:01:15.810Z,28.67
2023-03-05T09:03:43.536Z,22.67
2023-03-05T09:06:12.707Z,15.20
2023-03-05T09:08:41.560Z,34.67
2023-03-05T09:11:12.792Z,23.00
2023-03-05T09:13:40.763Z,23.33
2023-03-05T09:16:12.606Z,22.67
2023-03-05T09:18:41.210Z,13.75
2023-03-05T09:21:13.088Z,21.00
2023-03-05T09:23:40.670Z,18.00
2023-03-05T09:26:12.359Z,20.00
2023-03-05T09:28:40.864Z,21.00
2023-03-05T09:31:10.020Z,21.00
2023-03-05T09:33:38.437Z,22.00
2023-03-05T09:36:23.904Z,20.33
2023-03-05T09:38:52.005Z,23.00
2023-03-05T09:41:21.508Z,25.50
2023-03-05T09:43:56.942Z,20.67
2023-03-05T09:46:44.393Z,21.33
2023-03-05T09:49:29.836Z,16.00
2023-03-05T09:52:03.560Z,18.50
2023-03-05T09:54:41.828Z,21.60
2023-03-05T09:57:18.671Z,15.00
2023-03-05T10:00:00.010Z,17.00
2023-03-05T10:02:36.319Z,21.67
2023-03-05T10:05:42.166Z,22.00
2023-03-05T10:08:11.774Z,21.33
2023-03-05T10:10:47.701Z,21.33
2023-03-05T10:13:24.863Z,18.67
2023-03-05T10:16:27.840Z,18.33
2023-03-05T10:19:18.039Z,21.83
2023-03-05T10:21:44.819Z,17.00
2023-03-05T10:24:40.993Z,15.40
2023-03-05T10:27:14.888Z,15.00
2023-03-05T10:30:12.989Z,16.00
2023-03-05T10:32:56.232Z,18.50
2023-03-05T10:35:23.940Z,15.00
2023-03-05T10:38:22.810Z,14.25
2023-03-05T10:40:54.588Z,16.00
2023-03-05T10:43:27.061Z,22.00
2023-03-05T10:45:57.283Z,27.67
2023-03-05T10:48:42.294Z,24.33
2023-03-05T10:51:27.638Z,20.00
2023-03-05T10:53:59.344Z,11.25
2023-03-05T10:56:29.722Z,23.50
2023-03-05T10:58:57.883Z,22.67
2023-03-05T11:01:28.334Z,17.00
2023-03-05T11:04:29.900Z,19.67
2023-03-05T11:06:57.689Z,25.67
2023-03-05T11:09:29.944Z,28.50
2023-03-05T11:12:12.454Z,20.67
2023-03-05T11:15:00.370Z,34.67
2023-03-05T11:17:34.066Z,34.00
2023-03-05T11:20:29.581Z,24.67
2023-03-05T11:23:14.578Z,28.67
2023-03-05T11:25:59.090Z,27.00
2023-03-05T11:28:36.652Z,22.67
2023-03-05T11:31:18.632Z,23.00
2023-03-05T11:34:04.628Z,24.50
2023-03-05T11:37:04.760Z,19.33
2023-03-05T11:40:05.986Z,21.67
2023-03-05T11:42:34.259Z,23.33
2023-03-05T11:45:04.403Z,16.00
2023-03-05T11:47:45.880Z,16.00
2023-03-05T11:50:26.864Z,13.50
2023-03-05T11:53:04.335Z,13.00
2023-03-05T11:56:04.159Z,21.00
2023-03-05T11:58:50.645Z,10.00
2023-03-05T12:01:21.359Z,6.50
2023-03-05T12:03:50.873Z,16.50
2023-03-05T12:06:21.824Z,11.00
2023-03-05T12:08:55.378Z,17.20
2023-03-05T12:11:33.304Z,14.00
2023-03-05T12:14:20.092Z,19.50
2023-03-05T12:17:00.592Z,23.00
2023-03-05T12:19:54.403Z,14.40
2023-03-05T12:22:24.502Z,25.50
2023-03-05T12:24:52.899Z,24.33
2023-03-05T12:27:37.229Z,24.00
2023-03-05T12:30:05.604Z,41.00
2023-03-05T12:32:33.363Z,17.67
2023-03-05T12:35:29.600Z,17.50
2023-03-05T12:38:01.721Z,19.67
2023-03-05T12:40:31.186Z,29.00
2023-03-05T12:43:05.955Z,25.00
2023-03-05T12:45:36.028Z,14.00
2023-03-05T12:48:03.010Z,18.50
2023-03-05T12:50:30.752Z,15.33
2023-03-05T12:52:59.690Z,17.00
2023-03-05T12:55:33.697Z,13.00
2023-03-05T12:58:10.414Z,15.67
2023-03-05T13:00:49.656Z,10.50
2023-03-05T13:03:26.480Z,19.00
2023-03-05T13:05:56.474Z,16.50
2023-03-05T13:08:27.257Z,16.00
2023-03-05T13:11:06.461Z,13.33
2023-03-05T13:13:37.684Z,13.50
2023-03-05T13:16:06.157Z,12.00
2023-03-05T13:18:33.595Z,17.50
2023-03-05T13:21:21.060Z,7.67
2023-03-05T13:23:58.230Z,13.00
2023-03-05T13:26:35.752Z,8.00
2023-03-05T13:29:18.575Z,15.00
2023-03-05T13:31:54.622Z,10.25
2023-03-05T13:34:40.802Z,10.00
2023-03-05T13:37:18.809Z,10.00
2023-03-05T13:39:57.139Z,14.00
2023-03-05T13:42:31.381Z,16.50
2023-03-05T13:45:01.540Z,19.67
2023-03-05T13:47:32.360Z,21.67
2023-03-05T13:50:06.964Z,23.67
2023-03-05T13:52:38.892Z,17.00
2023-03-05T13:55:16.888Z,19.60
2023-03-05T13:57:51.453Z,12.20
2023-03-05T14:00:39.233Z,16.00
2023-03-05T14:03:23.147Z,12.00
2023-03-05T14:05:52.177Z,15.00
2023-03-05T14:08:25.520Z,17.00
2023-03-05T14:10:57.701Z,16.50
2023-03-05T14:13:27.965Z,10.00
2023-03-05T14:16:08.098Z,15.00
2023-03-05T14:18:36.273Z,14.00
2023-03-05T14:21:08.975Z,16.60
2023-03-05T14:23:46.028Z,13.67
2023-03-05T14:26:29.303Z,14.00
2023-03-05T14:29:18.580Z,16.50
2023-03-05T14:31:53.592Z,18.17
2023-03-05T14:34:42.977Z,10.00
2023-03-05T14:37:35.928Z,17.00
2023-03-05T14:40:20.659Z,19.33
2023-03-05T14:42:57.806Z,22.33
2023-03-05T14:45:34.523Z,26.00
2023-03-05T14:48:04.568Z,23.67
2023-03-05T14:50:43.119Z,19.67
2023-03-05T14:53:15.889Z,19.50
2023-03-05T14:55:51.228Z,17.00
2023-03-05T14:58:21.832Z,16.00
2023-03-05T15:00:51.287Z,25.67
2023-03-05T15:03:22.071Z,33.00
2023-03-05T15:05:52.862Z,30.00
2023-03-05T15:08:28.146Z,17.00
2023-03-05T15:10:57.909Z,18.40
2023-03-05T15:13:27.616Z,17.80
2023-03-05T15:15:56.510Z,15.20
2023-03-05T15:18:25.748Z,15.00
2023-03-05T15:20:53.520Z,11.00
2023-03-05T15:23:21.644Z,12.75
2023-03-05T15:25:48.734Z,16.00
2023-03-05T15:28:18.524Z,17.17
2023-03-05T15:30:47.335Z,25.33
2023-03-05T15:33:17.389Z,17.67
2023-03-05T15:35:45.363Z,18.67
2023-03-05T15:38:16.775Z,27.67
2023-03-05T15:40:47.138Z,20.83
2023-03-05T15:43:15.211Z,22.00
2023-03-05T15:45:42.539Z,18.00
2023-03-05T15:48:10.299Z,30.67
2023-03-05T15:50:39.832Z,34.00
2023-03-05T15:53:09.391Z,33.67
2023-03-05T15:55:40.935Z,38.00
2023-03-05T15:58:09.449Z,42.67
2023-03-05T16:00:39.732Z,41.50
2023-03-05T16:03:06.880Z,46.50
2023-03-05T16:05:35.684Z,43.00
2023-03-05T16:08:04.320Z,60.00
2023-03-05T16:10:33.623Z,48.00
2023-03-05T16:13:04.720Z,52.00
2023-03-05T16:15:35.567Z,58.00
2023-03-05T16:18:08.218Z,64.50
2023-03-05T16:20:36.464Z,72.00
2023-03-05T16:23:05.844Z,89.67
2023-03-05T16:25:34.954Z,91.67
2023-03-05T16:28:03.984Z,89.00
2023-03-05T16:30:33.260Z,90.33
2023-03-05T16:33:02.184Z,90.00
2023-03-05T16:35:30.271Z,79.50
2023-03-05T16:37:58.351Z,73.50
2023-03-05T16:40:34.200Z,72.50
2023-03-05T16:43:06.604Z,67.00
2023-03-05T16:45:35.422Z,61.33
2023-03-05T16:48:03.262Z,68.00
2023-03-05T16:50:30.152Z,62.00
2023-03-05T16:52:57.109Z,50.50
2023-03-05T16:55:25.052Z,76.00
2023-03-05T16:57:52.872Z,57.00
2023-03-05T17:00:24.749Z,61.50
2023-03-05T17:02:52.780Z,65.50
2023-03-05T17:05:20.749Z,66.00
2023-03-05T17:07:48.593Z,63.00
2023-03-05T17:10:18.877Z,71.00
2023-03-05T17:12:47.563Z,72.00
2023-03-05T17:15:16.112Z,72.50
2023-03-05T17:17:43.965Z,65.50
2023-03-05T17:20:13.276Z,74.00
2023-03-05T17:22:41.476Z,72.00
2023-03-05T17:25:09.541Z,53.50
2023-03-05T17:27:38.404Z,70.33
2023-03-05T17:30:08.324Z,75.00
2023-03-05T17:32:36.377Z,61.00
2023-03-05T17:35:05.384Z,71.50
2023-03-05T17:37:34.519Z,74.33
2023-03-05T17:40:01.477Z,66.50
2023-03-05T17:42:28.520Z,67.00
2023-03-05T17:44:56.383Z,62.00
2023-03-05T17:47:26.491Z,55.50
2023-03-05T17:49:54.355Z,59.50
2023-03-05T17:52:23.736Z,62.00
2023-03-05T17:54:53.254Z,51.00
2023-03-05T17:57:21.912Z,70.50
2023-03-05T17:59:49.750Z,57.50
2023-03-05T18:02:17.913Z,69.00
2023-03-05T18:04:44.769Z,71.50
2023-03-05T18:07:11.712Z,89.50
2023-03-05T18:09:40.314Z,85.00
2023-03-05T18:12:07.506Z,75.50
2023-03-05T18:14:35.383Z,77.00
2023-03-05T18:17:02.438Z,86.00
2023-03-05T18:19:30.277Z,82.00
2023-03-05T18:21:58.057Z,70.00
2023-03-05T18:24:25.950Z,53.50
2023-03-05T18:26:53.697Z,62.50
2023-03-05T18:29:22.518Z,62.00
2023-03-05T18:31:51.138Z,57.67
2023-03-05T18:34:21.144Z,69.67
2023-03-05T18:36:49.321Z,67.50
2023-03-05T18:39:18.890Z,72.00
2023-03-05T18:41:47.403Z,74.00
2023-03-05T18:44:15.527Z,74.00
2023-03-05T18:46:43.519Z,78.00
2023-03-05T18:49:12.248Z,83.00
2023-03-05T18:51:42.004Z,78.00
2023-03-05T18:54:10.280Z,81.50
2023-03-05T18:56:38.094Z,80.00
2023-03-05T18:59:05.313Z,75.00
2023-03-05T19:01:33.194Z,79.00
2023-03-05T19:04:00.321Z,73.50
2023-03-05T19:06:27.410Z,70.00
2023-03-05T19:09:29.222Z,70.50
2023-03-05T19:11:57.101Z,63.50
2023-03-05T19:14:25.171Z,63.50
2023-03-05T19:16:52.941Z,74.50
2023-03-05T19:19:24.383Z,73.00
2023-03-05T19:21:54.173Z,67.00
2023-03-05T19:24:24.225Z,69.00
2023-03-05T19:26:55.481Z,62.50
2023-03-05T19:29:26.861Z,55.00
2023-03-05T19:31:54.808Z,59.00
2023-03-05T19:34:22.612Z,71.00
2023-03-05T19:36:51.234Z,70.00
2023-03-05T19:39:20.008Z,67.00
2023-03-05T19:41:47.868Z,67.00
2023-03-05T19:44:15.680Z,71.00
2023-03-05T19:46:43.639Z,76.00
2023-03-05T19:49:11.753Z,75.50
2023-03-05T19:51:42.288Z,48.33
2023-03-05T19:54:11.217Z,78.00
2023-03-05T19:56:41.613Z,89.33
2023-03-05T19:59:10.347Z,84.00
2023-03-05T20:01:37.818Z,75.00
2023-03-05T20:04:06.301Z,77.50
2023-03-05T20:06:34.009Z,62.00
2023-03-05T20:09:02.209Z,56.50
2023-03-05T20:11:30.034Z,63.50
2023-03-05T20:13:59.238Z,66.67
2023-03-05T20:16:30.095Z,51.00
2023-03-05T20:18:58.882Z,42.50
2023-03-05T20:21:29.375Z,50.00
2023-03-05T20:23:58.910Z,41.00
2023-03-05T20:26:27.737Z,42.00
2023-03-05T20:28:57.249Z,37.33
2023-03-05T20:31:27.999Z,34.50
2023-03-05T20:33:57.859Z,44.00
2023-03-05T20:36:25.965Z,72.00
2023-03-05T20:38:55.929Z,65.00
2023-03-05T20:41:23.931Z,51.50
2023-03-05T20:43:52.425Z,69.50
2023-03-05T20:46:28.123Z,46.50
2023-03-05T20:48:59.293Z,59.00
2023-03-05T20:51:35.361Z,45.00
2023-03-05T20:54:10.650Z,43.00
2023-03-05T20:56:39.092Z,48.33
2023-03-05T20:59:09.033Z,51.00
2023-03-05T21:01:40.068Z,46.00
2023-03-05T21:04:07.871Z,41.00
2023-03-05T21:06:35.718Z,50.00
2023-03-05T21:09:03.954Z,41.33
2023-03-05T21:11:32.388Z,48.50
2023-03-05T21:13:59.545Z,38.00
2023-03-05T21:16:28.346Z,31.33
2023-03-05T21:18:58.032Z,36.00
2023-03-05T21:21:25.366Z,27.50
2023-03-05T21:23:53.711Z,37.50
2023-03-05T21:26:21.976Z,34.33
2023-03-05T21:28:51.637Z,32.33
2023-03-05T21:31:22.674Z,32.00
2023-03-05T21:33:50.529Z,30.33
2023-03-05T21:36:20.106Z,31.00
2023-03-05T21:38:48.543Z,27.50
2023-03-05T21:41:18.746Z,32.33
2023-03-05T21:43:46.612Z,33.00
2023-03-05T21:46:15.081Z,30.00
2023-03-05T21:48:42.748Z,24.67
2023-03-05T21:51:21.911Z,28.00
2023-03-05T21:53:50.355Z,38.00
2023-03-05T21:56:25.558Z,30.00
2023-03-05T21:58:54.232Z,26.00
2023-03-05T22:01:22.236Z,26.33
2023-03-05T22:03:50.318Z,33.67
2023-03-05T22:06:19.500Z,23.67
2023-03-05T22:08:49.224Z,26.00
2023-03-05T22:11:18.630Z,22.67
2023-03-05T22:13:47.387Z,25.00
2023-03-05T22:16:26.796Z,25.00
2023-03-05T22:18:56.442Z,22.17
2023-03-05T22:21:27.432Z,21.67
2023-03-05T22:23:58.895Z,36.00
2023-03-05T22:26:35.658Z,24.33
2023-03-05T22:29:04.821Z,26.33
2023-03-05T22:31:32.611Z,25.67
2023-03-05T22:34:00.350Z,25.67
2023-03-05T22:36:28.043Z,25.67
2023-03-05T22:38:55.729Z,25.00
2023-03-05T22:41:23.431Z,25.67
2023-03-05T22:43:51.747Z,27.00
2023-03-05T22:46:23.239Z,30.67
2023-03-05T22:48:53.614Z,24.83
2023-03-05T22:51:22.516Z,20.20
2023-03-05T22:53:49.675Z,46.50
2023-03-05T22:56:19.446Z,49.00
2023-03-05T22:58:46.749Z,37.00
2023-03-05T23:01:21.728Z,33.33
2023-03-05T23:04:33.264Z,58.33
2023-03-05T23:07:00.454Z,35.00
2023-03-05T23:09:28.169Z,48.67
2023-03-05T23:11:56.217Z,81.50
2023-03-05T23:14:23.248Z,72.50
2023-03-05T23:16:51.097Z,70.00
2023-03-05T23:19:18.992Z,85.00
2023-03-05T23:21:45.963Z,77.50
2023-03-05T23:24:14.817Z,90.00
2023-03-05T23:26:43.422Z,85.00
2023-03-05T23:29:11.377Z,82.50
2023-03-05T23:31:39.261Z,72.00
2023-03-05T23:34:07.067Z,26.00
2023-03-05T23:36:53.490Z,28.67
2023-03-05T23:39:21.301Z,37.67
2023-03-05T23:41:48.981Z,34.67
2023-03-05T23:44:16.856Z,30.00
2023-03-05T23:46:43.717Z,31.50
2023-03-05T23:49:10.949Z,40.00
2023-03-05T23:51:38.725Z,39.33
2023-03-05T23:54:06.645Z,38.33
2023-03-05T23:56:34.636Z,37.00
2023-03-05T23:59:01.796Z,38.50
